createdAt,value
2018-04-16T00:01:41.796Z,18.50
2018-04-16T00:04:07.727Z,22.27
2018-04-16T00:06:33.637Z,21.40
2018-04-16T00:08:59.608Z,18.73
2018-04-16T00:11:25.877Z,19.73
2018-04-16T00:13:51.772Z,18.80
2018-04-16T00:16:17.740Z,21.63
2018-04-16T00:18:43.612Z,20.00
2018-04-16T00:21:09.472Z,22.57
2018-04-16T00:23:35.479Z,19.60
2018-04-16T00:26:01.433Z,21.23
2018-04-16T00:28:27.467Z,25.37
2018-04-16T00:30:53.407Z,22.53
2018-04-16T00:33:25.371Z,23.50
2018-04-16T00:35:57.570Z,22.37
2018-04-16T00:38:29.450Z,26.37
2018-04-16T00:41:01.720Z,26.97
2018-04-16T00:43:33.743Z,29.07
2018-04-16T00:46:05.860Z,24.97
2018-04-16T00:48:37.900Z,24.07
2018-04-16T00:51:10.128Z,24.20
2018-04-16T00:53:54.590Z,20.57
2018-04-16T00:56:26.898Z,23.57
2018-04-16T00:58:58.791Z,26.73
2018-04-16T01:01:30.920Z,27.43
2018-04-16T01:04:02.874Z,22.03
2018-04-16T01:06:34.980Z,28.77
2018-04-16T01:09:06.815Z,26.33
2018-04-16T01:11:38.943Z,25.97
2018-04-16T01:14:10.887Z,25.90
2018-04-16T01:16:42.960Z,25.57
2018-04-16T01:19:15.009Z,24.80
2018-04-16T01:21:47.016Z,27.93
2018-04-16T01:24:18.989Z,27.00
2018-04-16T01:26:52.115Z,25.60
2018-04-16T01:29:24.139Z,25.77
2018-04-16T01:31:56.162Z,25.30
2018-04-16T01:34:28.100Z,24.10
2018-04-16T01:37:00.311Z,26.40
2018-04-16T01:39:32.335Z,27.83
2018-04-16T01:42:04.529Z,26.23
2018-04-16T01:44:36.564Z,27.37
2018-04-16T01:47:08.644Z,28.57
2018-04-16T01:49:40.659Z,25.57
2018-04-16T01:52:12.660Z,25.83
2018-04-16T01:54:45.617Z,26.30
2018-04-16T01:57:17.747Z,25.97
2018-04-16T01:59:49.888Z,27.93
2018-04-16T02:02:22.019Z,28.00
2018-04-16T02:04:54.001Z,26.17
2018-04-16T02:07:26.240Z,28.10
2018-04-16T02:09:58.076Z,29.77
2018-04-16T02:12:31.233Z,30.83
2018-04-16T02:15:03.180Z,29.83
2018-04-16T02:17:35.373Z,29.70
2018-04-16T02:20:07.419Z,27.80
2018-04-16T02:22:39.444Z,26.87
2018-04-16T02:25:11.443Z,27.87
2018-04-16T02:27:43.604Z,28.93
2018-04-16T02:30:15.591Z,31.03
2018-04-16T02:32:47.742Z,29.80
2018-04-16T02:35:20.793Z,27.03
2018-04-16T02:37:53.008Z,33.97
2018-04-16T02:40:24.901Z,32.33
2018-04-16T02:42:56.849Z,30.43
2018-04-16T02:45:28.829Z,37.67
2018-04-16T02:48:01.049Z,32.30
2018-04-16T02:50:33.904Z,27.83
2018-04-16T02:53:06.031Z,28.20
2018-04-16T02:55:38.184Z,30.23
2018-04-16T02:58:10.301Z,33.87
2018-04-16T03:00:42.545Z,43.27
2018-04-16T03:03:14.593Z,32.30
2018-04-16T03:05:46.544Z,32.30
2018-04-16T03:08:20.702Z,34.30
2018-04-16T03:10:52.946Z,34.10
2018-04-16T03:13:25.100Z,36.07
2018-04-16T03:15:57.103Z,34.27
2018-04-16T03:18:29.297Z,33.97
2018-04-16T03:21:01.292Z,33.43
2018-04-16T03:23:33.281Z,41.30
2018-04-16T03:26:05.300Z,38.90
2018-04-16T03:28:37.461Z,37.00
2018-04-16T03:31:09.402Z,39.00
2018-04-16T03:33:41.577Z,35.37
2018-04-16T03:36:13.644Z,36.10
2018-04-16T03:38:45.793Z,35.87
2018-04-16T03:41:17.930Z,40.00
2018-04-16T03:43:50.075Z,37.33
2018-04-16T03:49:32.265Z,37.80
2018-04-16T03:52:13.094Z,37.77
2018-04-16T03:54:39.112Z,38.63
2018-04-16T03:57:05.009Z,40.77
2018-04-16T03:59:30.959Z,31.70
2018-04-16T04:01:56.889Z,33.60
2018-04-16T04:04:22.866Z,31.27
2018-04-16T04:06:48.803Z,31.80
2018-04-16T04:09:14.724Z,32.80
2018-04-16T04:11:40.678Z,31.87
2018-04-16T04:14:06.553Z,40.83
2018-04-16T04:16:32.484Z,33.33
2018-04-16T04:18:58.424Z,33.03
2018-04-16T04:21:24.308Z,32.57
2018-04-16T04:24:03.407Z,35.27
2018-04-16T04:26:41.715Z,34.10
2018-04-16T04:29:20.119Z,32.03
2018-04-16T04:31:46.021Z,34.50
2018-04-16T04:34:11.984Z,35.00
2018-04-16T04:36:37.892Z,35.17
2018-04-16T04:39:03.755Z,38.33
2018-04-16T04:41:29.680Z,32.67
2018-04-16T04:43:56.420Z,35.60
2018-04-16T04:46:22.360Z,38.03
2018-04-16T04:48:48.226Z,33.47
2018-04-16T04:51:14.143Z,37.93
2018-04-16T04:53:40.064Z,37.63
2018-04-16T04:56:05.958Z,32.73
2018-04-16T04:58:31.985Z,33.10
2018-04-16T05:00:57.853Z,33.87
2018-04-16T05:03:23.724Z,34.83
2018-04-16T05:05:49.756Z,37.77
2018-04-16T05:08:15.743Z,35.23
2018-04-16T05:10:41.691Z,38.57
2018-04-16T05:13:07.695Z,38.03
2018-04-16T05:15:33.985Z,39.50
2018-04-16T05:17:59.852Z,38.10
2018-04-16T05:20:25.803Z,38.10
2018-04-16T05:22:51.680Z,39.67
2018-04-16T05:25:17.552Z,39.27
2018-04-16T05:27:43.512Z,43.40
2018-04-16T05:30:09.442Z,47.80
2018-04-16T05:32:35.377Z,40.60
2018-04-16T05:35:01.288Z,41.63
2018-04-16T05:37:27.174Z,40.83
2018-04-16T05:39:53.048Z,39.87
2018-04-16T05:42:18.984Z,45.20
2018-04-16T05:44:44.844Z,43.93
2018-04-16T05:47:10.713Z,45.87
2018-04-16T05:49:36.632Z,40.17
2018-04-16T05:52:02.539Z,39.20
2018-04-16T05:54:28.443Z,41.83
2018-04-16T05:56:54.374Z,43.83
2018-04-16T05:59:20.251Z,45.23
2018-04-16T06:01:46.122Z,44.13
2018-04-16T06:04:12.044Z,45.70
2018-04-16T06:06:37.962Z,45.93
2018-04-16T06:09:04.839Z,41.50
2018-04-16T06:11:30.852Z,46.60
2018-04-16T06:13:56.741Z,41.63
2018-04-16T06:16:22.651Z,45.20
2018-04-16T06:18:48.571Z,44.90
2018-04-16T06:21:14.424Z,43.53
2018-04-16T06:23:40.372Z,42.87
2018-04-16T06:26:06.295Z,47.50
2018-04-16T06:28:32.995Z,49.17
2018-04-16T06:30:58.863Z,43.90
2018-04-16T06:33:24.801Z,52.20
2018-04-16T06:35:50.716Z,48.27
2018-04-16T06:38:16.698Z,52.77
2018-04-16T06:40:42.903Z,43.40
2018-04-16T06:43:08.779Z,48.20
2018-04-16T06:45:34.676Z,47.57
2018-04-16T06:48:00.588Z,50.63
2018-04-16T06:50:26.451Z,46.80
2018-04-16T06:52:52.303Z,49.57
2018-04-16T06:55:18.217Z,52.60
2018-04-16T06:57:44.134Z,50.60
2018-04-16T07:00:10.057Z,48.53
2018-04-16T07:02:35.955Z,52.33
2018-04-16T07:05:01.872Z,53.97
2018-04-16T07:07:27.891Z,49.77
2018-04-16T07:09:53.867Z,46.10
2018-04-16T07:12:19.940Z,49.17
2018-04-16T07:14:45.795Z,54.17
2018-04-16T07:17:11.709Z,51.87
2018-04-16T07:19:37.807Z,54.17
2018-04-16T07:22:03.686Z,58.87
2018-04-16T07:24:29.707Z,45.20
2018-04-16T07:26:55.616Z,52.00
2018-04-16T07:29:21.487Z,56.40
2018-04-16T07:31:47.815Z,55.27
2018-04-16T07:34:13.679Z,62.63
2018-04-16T07:36:39.648Z,61.83
2018-04-16T07:39:05.547Z,65.83
2018-04-16T07:41:31.418Z,61.83
2018-04-16T07:43:57.641Z,71.63
2018-04-16T07:46:23.590Z,71.97
2018-04-16T07:48:49.541Z,65.77
2018-04-16T07:51:15.489Z,79.30
2018-04-16T07:53:41.895Z,65.27
2018-04-16T07:56:07.772Z,63.20
2018-04-16T07:58:33.823Z,66.90
2018-04-16T08:00:59.811Z,67.67
2018-04-16T08:03:25.668Z,72.63
2018-04-16T08:05:51.534Z,78.10
2018-04-16T08:08:17.488Z,71.60
2018-04-16T08:10:43.370Z,66.80
2018-04-16T08:13:09.319Z,67.50
2018-04-16T08:15:35.231Z,63.13
2018-04-16T08:18:01.081Z,64.93
2018-04-16T08:20:26.948Z,69.63
2018-04-16T08:22:53.069Z,58.67
2018-04-16T08:25:19.031Z,60.27
2018-04-16T08:27:44.883Z,65.20
2018-04-16T08:30:10.791Z,65.83
2018-04-16T08:32:36.643Z,65.33
2018-04-16T08:35:02.520Z,62.93
2018-04-16T08:37:28.536Z,67.70
2018-04-16T08:39:54.406Z,62.13
2018-04-16T08:42:20.265Z,56.00
2018-04-16T08:44:46.544Z,60.47
2018-04-16T08:47:12.396Z,63.23
2018-04-16T08:49:38.360Z,62.73
2018-04-16T08:52:04.283Z,61.20
2018-04-16T08:54:30.157Z,52.93
2018-04-16T08:56:56.069Z,49.07
2018-04-16T08:59:21.999Z,52.30
2018-04-16T09:01:47.985Z,59.63
2018-04-16T09:04:13.859Z,55.93
2018-04-16T09:06:43.782Z,55.93
2018-04-16T09:09:09.648Z,63.80
2018-04-16T09:11:35.562Z,54.63
2018-04-16T09:14:01.563Z,55.17
2018-04-16T09:16:27.445Z,54.97
2018-04-16T09:18:53.304Z,48.77
2018-04-16T09:21:21.301Z,50.70
2018-04-16T09:23:47.170Z,52.97
2018-04-16T09:26:13.125Z,56.40
2018-04-16T09:28:40.120Z,52.80
2018-04-16T09:31:05.993Z,50.23
2018-04-16T09:33:31.929Z,60.80
2018-04-16T09:35:57.892Z,56.03
2018-04-16T09:38:23.869Z,59.47
2018-04-16T09:40:49.735Z,62.00
2018-04-16T09:43:15.636Z,51.00
2018-04-16T09:45:41.489Z,47.83
2018-04-16T09:48:07.430Z,46.80
2018-04-16T09:50:33.440Z,48.10
2018-04-16T09:52:59.288Z,46.73
2018-04-16T09:55:25.152Z,46.87
2018-04-16T09:57:51.051Z,50.07
2018-04-16T10:00:17.009Z,45.67
2018-04-16T10:02:49.868Z,46.53
2018-04-16T10:05:15.779Z,51.00
2018-04-16T10:07:41.635Z,55.73
2018-04-16T10:10:07.560Z,50.97
2018-04-16T10:12:33.466Z,46.60
2018-04-16T10:14:59.560Z,58.50
2018-04-16T10:17:25.429Z,50.80
2018-04-16T10:19:52.778Z,50.57
2018-04-16T10:22:18.644Z,52.03
2018-04-16T10:24:44.500Z,43.03
2018-04-16T10:27:10.515Z,46.30
2018-04-16T10:29:36.371Z,50.53
2018-04-16T10:32:02.235Z,47.97
2018-04-16T10:34:28.162Z,44.87
2018-04-16T10:36:54.047Z,53.20
2018-04-16T10:39:20.010Z,48.67
2018-04-16T10:41:46.775Z,51.20
2018-04-16T10:44:12.672Z,48.17
2018-04-16T10:46:38.548Z,46.23
2018-04-16T10:49:04.460Z,46.53
2018-04-16T10:51:30.424Z,47.17
2018-04-16T10:53:56.329Z,40.13
2018-04-16T10:56:22.308Z,43.67
2018-04-16T10:58:48.210Z,51.17
2018-04-16T11:01:14.092Z,41.60
2018-04-16T11:03:40.115Z,49.73
2018-04-16T11:06:05.992Z,44.00
2018-04-16T11:08:31.944Z,38.30
2018-04-16T11:10:57.871Z,36.57
2018-04-16T11:13:23.765Z,39.57
2018-04-16T11:15:49.834Z,38.13
2018-04-16T11:18:15.762Z,40.50
2018-04-16T11:20:41.644Z,35.03
2018-04-16T11:23:07.520Z,36.93
2018-04-16T11:25:33.448Z,38.13
2018-04-16T11:27:59.426Z,38.17
2018-04-16T11:30:26.381Z,37.90
2018-04-16T11:32:52.820Z,36.73
2018-04-16T11:35:18.672Z,32.30
2018-04-16T11:37:44.565Z,32.87
2018-04-16T11:40:10.585Z,30.07
2018-04-16T11:42:36.481Z,26.30
2018-04-16T11:45:02.364Z,29.50
2018-04-16T11:47:28.292Z,28.27
2018-04-16T11:49:54.152Z,27.40
2018-04-16T11:52:20.957Z,26.57
2018-04-16T11:54:46.871Z,27.63
2018-04-16T11:57:12.738Z,27.40
2018-04-16T11:59:38.624Z,24.53
2018-04-16T12:02:04.560Z,25.03
2018-04-16T12:04:30.608Z,23.60
2018-04-16T12:06:56.483Z,23.67
2018-04-16T12:09:22.388Z,25.63
2018-04-16T12:11:48.247Z,24.60
2018-04-16T12:14:14.135Z,22.00
2018-04-16T12:16:40.149Z,21.07
2018-04-16T12:19:06.048Z,22.70
2018-04-16T12:21:31.982Z,21.00
2018-04-16T12:23:57.903Z,20.20
2018-04-16T12:26:23.773Z,20.13
2018-04-16T12:28:49.780Z,20.00
2018-04-16T12:31:15.692Z,20.73
2018-04-16T12:33:41.549Z,21.20
2018-04-16T12:36:07.429Z,22.53
2018-04-16T12:38:33.330Z,21.10
2018-04-16T12:40:59.322Z,21.03
2018-04-16T12:43:25.203Z,23.27
2018-04-16T12:45:51.128Z,23.10
2018-04-16T12:48:16.995Z,24.23
2018-04-16T12:50:42.855Z,29.97
2018-04-16T12:53:08.880Z,24.20
2018-04-16T12:55:35.694Z,24.27
2018-04-16T12:58:01.572Z,23.87
2018-04-16T13:00:27.508Z,26.37
2018-04-16T13:02:53.392Z,25.23
2018-04-16T13:05:19.360Z,24.70
2018-04-16T13:07:45.307Z,22.23
2018-04-16T13:10:11.214Z,20.20
2018-04-16T13:12:37.156Z,19.43
2018-04-16T13:15:03.115Z,23.50
2018-04-16T13:17:29.229Z,21.70
2018-04-16T13:19:55.144Z,20.93
2018-04-16T13:22:21.047Z,20.90
2018-04-16T13:24:46.915Z,23.13
2018-04-16T13:27:12.777Z,26.13
2018-04-16T13:29:38.828Z,24.13
2018-04-16T13:32:04.729Z,26.73
2018-04-16T13:34:30.595Z,25.87
2018-04-16T13:36:56.506Z,25.30
2018-04-16T13:39:22.382Z,24.93
2018-04-16T13:41:48.340Z,25.60
2018-04-16T13:44:14.275Z,27.90
2018-04-16T13:46:40.140Z,25.73
2018-04-16T13:49:07.466Z,26.67
2018-04-16T13:51:33.380Z,26.07
2018-04-16T13:53:59.415Z,30.80
2018-04-16T13:56:25.295Z,29.37
2018-04-16T13:58:51.200Z,31.43
2018-04-16T14:01:17.072Z,30.30
2018-04-16T14:03:42.947Z,30.47
2018-04-16T14:06:09.011Z,31.27
2018-04-16T14:08:34.870Z,31.00
2018-04-16T14:11:00.749Z,32.73
2018-04-16T14:13:26.688Z,34.77
2018-04-16T14:15:52.566Z,33.33
2018-04-16T14:18:18.500Z,35.87
2018-04-16T14:20:44.419Z,32.83
2018-04-16T14:23:10.293Z,32.83
2018-04-16T14:25:36.172Z,36.50
2018-04-16T14:28:02.100Z,36.33
2018-04-16T14:30:28.085Z,35.50
2018-04-16T14:32:53.947Z,40.90
2018-04-16T14:35:19.867Z,43.70
2018-04-16T14:37:45.727Z,38.90
2018-04-16T14:40:11.695Z,39.67
2018-04-16T14:42:37.699Z,42.10
2018-04-16T14:45:03.581Z,44.40
2018-04-16T14:47:29.491Z,45.13
2018-04-16T14:49:55.688Z,47.40
2018-04-16T14:52:21.560Z,47.70
2018-04-16T14:54:47.551Z,48.03
2018-04-16T14:57:13.473Z,47.23
2018-04-16T14:59:39.340Z,49.97
2018-04-16T15:02:05.214Z,46.10
2018-04-16T15:04:31.131Z,49.07
2018-04-16T15:06:57.116Z,51.77
2018-04-16T15:09:23.029Z,49.70
2018-04-16T15:11:48.953Z,51.50
2018-04-16T15:14:14.823Z,52.13
2018-04-16T15:16:40.693Z,52.83
2018-04-16T15:19:06.703Z,51.83
2018-04-16T15:21:32.577Z,57.70
2018-04-16T15:23:59.515Z,56.37
2018-04-16T15:26:25.419Z,57.67
2018-04-16T15:28:51.563Z,61.50
2018-04-16T15:31:17.599Z,58.97
2018-04-16T15:33:43.492Z,60.40
2018-04-16T15:36:09.378Z,56.63
2018-04-16T15:38:35.237Z,58.90
2018-04-16T15:41:01.143Z,60.23
2018-04-16T15:43:27.095Z,62.13
2018-04-16T15:45:53.040Z,56.33
2018-04-16T15:48:18.967Z,61.33
2018-04-16T15:50:44.836Z,66.53
2018-04-16T15:53:10.703Z,67.13
2018-04-16T15:55:37.059Z,73.37
2018-04-16T15:58:03.018Z,73.17
2018-04-16T16:00:28.882Z,74.47
2018-04-16T16:02:54.775Z,74.40
2018-04-16T16:05:20.653Z,69.93
2018-04-16T16:07:46.627Z,71.43
2018-04-16T16:10:12.606Z,83.47
2018-04-16T16:12:39.026Z,77.57
2018-04-16T16:15:04.976Z,80.37
2018-04-16T16:17:30.886Z,76.13
2018-04-16T16:19:56.839Z,85.97
2018-04-16T16:22:22.765Z,83.90
2018-04-16T16:24:48.683Z,80.87
2018-04-16T16:27:14.701Z,80.80
2018-04-16T16:29:40.619Z,77.67
2018-04-16T16:32:06.629Z,81.23
2018-04-16T16:34:32.550Z,80.60
2018-04-16T16:36:58.428Z,81.63
2018-04-16T16:39:24.340Z,98.13
2018-04-16T16:41:50.273Z,87.27
2018-04-16T16:44:16.591Z,79.73
2018-04-16T16:46:42.541Z,77.63
2018-04-16T16:49:08.412Z,79.37
2018-04-16T16:51:34.289Z,98.37
2018-04-16T16:54:00.285Z,98.60
2018-04-16T16:56:26.199Z,89.17
2018-04-16T16:58:52.132Z,96.10
2018-04-16T17:01:18.290Z,92.03
2018-04-16T17:03:44.165Z,89.20
2018-04-16T17:06:10.056Z,94.30
2018-04-16T17:08:36.068Z,96.10
2018-04-16T17:11:01.991Z,94.77
2018-04-16T17:13:27.852Z,96.23
2018-04-16T17:15:53.759Z,98.50
2018-04-16T17:18:19.616Z,94.90
2018-04-16T17:20:45.636Z,96.20
2018-04-16T17:23:11.555Z,108.43
2018-04-16T17:25:37.439Z,113.33
2018-04-16T17:28:03.345Z,107.13
2018-04-16T17:30:29.472Z,100.30
2018-04-16T17:32:55.466Z,97.83
2018-04-16T17:35:21.334Z,97.70
2018-04-16T17:37:47.261Z,103.77
2018-04-16T17:40:13.123Z,100.27
2018-04-16T17:42:38.995Z,103.13
2018-04-16T17:45:05.400Z,107.83
2018-04-16T17:47:31.264Z,103.67
2018-04-16T17:49:57.127Z,102.30
2018-04-16T17:52:23.058Z,107.93
2018-04-16T17:54:48.936Z,112.03
2018-04-16T17:57:14.887Z,101.40
2018-04-16T17:59:40.805Z,113.07
2018-04-16T18:02:06.684Z,110.67
2018-04-16T18:04:32.609Z,121.60
2018-04-16T18:06:58.512Z,119.90
2018-04-16T18:09:24.503Z,119.17
2018-04-16T18:11:50.360Z,125.97
2018-04-16T18:14:16.303Z,114.33
2018-04-16T18:16:42.176Z,114.90
2018-04-16T18:19:08.057Z,114.47
2018-04-16T18:21:34.067Z,126.43
2018-04-16T18:23:59.980Z,109.50
2018-04-16T18:26:25.862Z,118.73
2018-04-16T18:28:51.776Z,119.13
2018-04-16T18:31:17.637Z,119.97
2018-04-16T18:33:43.619Z,115.03
2018-04-16T18:36:09.557Z,127.90
2018-04-16T18:38:35.496Z,118.47
2018-04-16T18:41:01.435Z,121.57
2018-04-16T18:43:27.359Z,102.07
2018-04-16T18:45:53.349Z,124.00
2018-04-16T18:48:19.232Z,136.07
2018-04-16T18:50:45.150Z,131.77
2018-04-16T18:53:11.032Z,130.40
2018-04-16T18:55:36.895Z,127.37
2018-04-16T18:58:02.832Z,127.50
2018-04-16T19:00:28.751Z,126.97
2018-04-16T19:02:54.641Z,136.07
2018-04-16T19:05:20.566Z,106.93
2018-04-16T19:07:46.460Z,141.57
2018-04-16T19:10:12.357Z,131.50
2018-04-16T19:12:38.292Z,105.60
2018-04-16T19:15:04.271Z,114.87
2018-04-16T19:17:30.160Z,120.40
2018-04-16T19:19:56.072Z,126.53
2018-04-16T19:22:22.031Z,123.83
2018-04-16T19:24:47.911Z,126.57
2018-04-16T19:27:20.678Z,126.63
2018-04-16T19:29:46.565Z,142.80
2018-04-16T19:32:12.441Z,135.03
2018-04-16T19:34:44.449Z,106.40
2018-04-16T19:37:10.329Z,121.93
2018-04-16T19:39:36.217Z,118.20
2018-04-16T19:42:08.324Z,120.47
2018-04-16T19:44:34.198Z,127.07
2018-04-16T19:47:00.828Z,126.23
2018-04-16T19:49:32.852Z,140.20
2018-04-16T19:51:58.720Z,124.73
2018-04-16T19:54:24.989Z,120.13
2018-04-16T19:56:56.956Z,123.93
2018-04-16T19:59:23.390Z,98.77
2018-04-16T20:01:55.545Z,109.83
2018-04-16T20:04:21.640Z,120.10
2018-04-16T20:06:47.506Z,125.43
2018-04-16T20:09:13.389Z,126.37
2018-04-16T20:11:39.478Z,153.43
2018-04-16T20:14:05.648Z,132.10
2018-04-16T20:16:31.520Z,129.60
2018-04-16T20:18:58.660Z,139.90
2018-04-16T20:21:24.581Z,145.50
2018-04-16T20:23:50.568Z,136.33
2018-04-16T20:26:16.498Z,130.20
2018-04-16T20:28:42.379Z,124.50
2018-04-16T20:31:08.666Z,125.83
2018-04-16T20:33:34.563Z,134.40
2018-04-16T20:36:01.118Z,118.17
2018-04-16T20:38:26.996Z,124.50
2018-04-16T20:40:52.971Z,130.77
2018-04-16T20:43:18.826Z,129.33
2018-04-16T20:45:44.704Z,124.27
2018-04-16T20:48:10.711Z,126.00
2018-04-16T20:50:36.589Z,133.10
2018-04-16T20:53:02.444Z,120.50
2018-04-16T20:55:28.378Z,116.80
2018-04-16T20:57:54.274Z,124.27
2018-04-16T21:00:21.065Z,124.00
2018-04-16T21:02:46.985Z,122.60
2018-04-16T21:05:12.855Z,119.83
2018-04-16T21:07:38.748Z,111.73
2018-04-16T21:10:04.687Z,109.17
2018-04-16T21:12:30.760Z,105.20
2018-04-16T21:14:56.628Z,104.37
2018-04-16T21:17:22.640Z,107.13
2018-04-16T21:19:48.508Z,104.37
2018-04-16T21:22:14.426Z,102.10
2018-04-16T21:24:40.448Z,103.13
2018-04-16T21:27:06.348Z,95.63
2018-04-16T21:29:32.224Z,99.67
2018-04-16T21:31:58.570Z,92.17
2018-04-16T21:34:24.859Z,92.93
2018-04-16T21:36:51.195Z,91.73
2018-04-16T21:39:17.144Z,99.53
2018-04-16T21:41:43.119Z,91.97
2018-04-16T21:44:09.389Z,91.07
2018-04-16T21:46:35.628Z,90.87
2018-04-16T21:49:01.906Z,95.37
2018-04-16T21:51:28.245Z,99.50
2018-04-16T21:53:54.316Z,94.97
2018-04-16T21:56:20.765Z,101.67
2018-04-16T21:58:46.754Z,105.63
2018-04-16T22:01:13.371Z,97.10
2018-04-16T22:03:39.376Z,103.57
2018-04-16T22:06:05.388Z,99.60
2018-04-16T22:08:31.756Z,100.13
2018-04-16T22:10:58.193Z,90.83
2018-04-16T22:13:24.183Z,82.40
2018-04-16T22:15:50.183Z,91.10
2018-04-16T22:18:16.196Z,99.20
2018-04-16T22:20:42.220Z,97.40
2018-04-16T22:23:08.719Z,104.13
2018-04-16T22:25:35.099Z,93.27
2018-04-16T22:28:00.992Z,74.47
2018-04-16T22:30:26.920Z,82.53
2018-04-16T22:32:52.893Z,104.37
2018-04-16T22:35:18.766Z,80.00
2018-04-16T22:37:45.160Z,93.20
2018-04-16T22:40:11.049Z,89.97
2018-04-16T22:42:37.026Z,99.97
2018-04-16T22:45:02.959Z,114.83
2018-04-16T22:47:28.857Z,123.00
2018-04-16T22:49:54.812Z,126.57
2018-04-16T22:52:20.752Z,113.07
2018-04-16T22:54:46.700Z,107.13
2018-04-16T22:57:12.571Z,104.33
2018-04-16T22:59:38.495Z,100.93
2018-04-16T23:02:04.482Z,86.70
2018-04-16T23:04:30.384Z,91.23
2018-04-16T23:06:56.624Z,115.07
2018-04-16T23:09:22.575Z,108.70
2018-04-16T23:11:48.480Z,115.87
2018-04-16T23:14:14.484Z,94.90
2018-04-16T23:16:41.233Z,80.83
2018-04-16T23:19:07.117Z,88.70
2018-04-16T23:21:33.035Z,112.73
2018-04-16T23:23:59.011Z,84.93
2018-04-16T23:26:25.011Z,78.50
2018-04-16T23:28:50.911Z,98.90
2018-04-16T23:31:17.671Z,101.13
2018-04-16T23:33:43.564Z,82.20
2018-04-16T23:36:09.587Z,86.13
2018-04-16T23:38:36.307Z,125.07
2018-04-16T23:41:02.195Z,124.77
2018-04-16T23:43:28.156Z,141.33
2018-04-16T23:45:54.053Z,137.20
2018-04-16T23:48:19.936Z,144.47
2018-04-16T23:50:45.972Z,138.73
2018-04-16T23:53:11.843Z,133.67
2018-04-16T23:55:37.769Z,140.60
2018-04-16T23:58:03.692Z,121.50
